createdAt,value
2019-06-26T00:00:50.095Z,22.10
2019-06-26T00:05:54.930Z,22.00
2019-06-26T00:10:59.783Z,21.90
2019-06-26T00:16:04.721Z,21.80
2019-06-26T00:21:09.572Z,21.70
2019-06-26T00:26:14.409Z,21.70
2019-06-26T00:31:19.258Z,21.60
2019-06-26T00:36:24.122Z,21.50
2019-06-26T00:41:28.972Z,21.50
2019-06-26T00:46:33.912Z,21.50
2019-06-26T00:51:38.749Z,21.40
2019-06-26T00:56:45.052Z,21.30
2019-06-26T01:01:50.041Z,21.20
2019-06-26T01:06:55.042Z,21.10
2019-06-26T01:12:01.371Z,21.10
2019-06-26T01:17:07.688Z,21.00
2019-06-26T01:22:14.012Z,21.00
2019-06-26T01:27:21.129Z,20.90
2019-06-26T01:32:27.379Z,20.90
2019-06-26T01:37:33.719Z,20.90
2019-06-26T01:42:40.028Z,20.90
2019-06-26T01:47:45.495Z,20.90
2019-06-26T01:52:51.017Z,20.80
2019-06-26T01:57:56.372Z,20.70
2019-06-26T02:03:02.992Z,20.60
2019-06-26T02:08:07.843Z,20.60
2019-06-26T02:13:12.747Z,20.50
2019-06-26T02:18:37.473Z,20.50
2019-06-26T02:23:42.404Z,20.40
2019-06-26T02:28:47.273Z,20.40
2019-06-26T02:33:52.043Z,20.40
2019-06-26T02:38:56.823Z,20.50
2019-06-26T02:44:02.369Z,20.50
2019-06-26T02:49:07.836Z,20.40
2019-06-26T02:54:12.768Z,20.40
2019-06-26T02:59:18.111Z,20.40
2019-06-26T03:04:23.218Z,20.50
2019-06-26T03:09:28.089Z,20.60
2019-06-26T03:14:33.760Z,20.60
2019-06-26T03:19:38.610Z,20.60
2019-06-26T03:24:43.463Z,20.70
2019-06-26T03:29:48.292Z,20.90
2019-06-26T03:34:53.142Z,21.00
2019-06-26T03:39:57.989Z,21.10
2019-06-26T03:45:03.431Z,21.10
2019-06-26T03:50:08.364Z,21.20
2019-06-26T03:55:13.315Z,21.20
2019-06-26T04:00:24.168Z,21.30
2019-06-26T04:05:29.110Z,21.40
2019-06-26T04:10:35.174Z,21.50
2019-06-26T04:15:42.574Z,21.60
2019-06-26T04:20:47.105Z,21.80
2019-06-26T04:25:52.268Z,21.90
2019-06-26T04:30:57.138Z,22.10
2019-06-26T04:36:01.988Z,22.30
2019-06-26T04:41:06.855Z,22.50
2019-06-26T04:46:11.699Z,22.70
2019-06-26T04:51:16.543Z,22.80
2019-06-26T04:56:21.413Z,23.10
2019-06-26T05:01:26.379Z,23.20
2019-06-26T05:06:31.347Z,23.40
2019-06-26T05:11:36.189Z,23.60
2019-06-26T05:16:41.251Z,23.80
2019-06-26T05:21:46.108Z,24.00
2019-06-26T05:26:50.954Z,24.20
2019-06-26T05:31:55.803Z,24.50
2019-06-26T05:37:00.654Z,24.80
2019-06-26T05:42:06.973Z,25.10
2019-06-26T05:47:11.855Z,25.50
2019-06-26T05:52:16.883Z,25.80
2019-06-26T05:57:21.745Z,26.10
2019-06-26T06:02:26.667Z,26.40
2019-06-26T06:07:32.200Z,26.60
2019-06-26T06:12:37.039Z,26.90
2019-06-26T06:17:41.942Z,27.30
2019-06-26T06:22:46.792Z,27.50
2019-06-26T06:27:51.692Z,27.80
2019-06-26T06:32:56.578Z,28.10
2019-06-26T06:38:01.358Z,28.30
2019-06-26T06:43:06.203Z,28.60
2019-06-26T06:48:10.980Z,28.70
2019-06-26T06:53:15.830Z,28.90
2019-06-26T06:58:20.611Z,29.20
2019-06-26T07:03:25.453Z,29.40
2019-06-26T07:08:30.371Z,29.70
2019-06-26T07:13:35.216Z,30.00
2019-06-26T07:18:40.043Z,30.30
2019-06-26T07:23:44.869Z,30.60
2019-06-26T07:28:49.719Z,30.90
2019-06-26T07:33:55.656Z,31.10
2019-06-26T07:39:01.021Z,31.40
2019-06-26T07:44:05.864Z,31.60
2019-06-26T07:49:10.639Z,31.80
2019-06-26T07:54:15.483Z,31.90
2019-06-26T07:59:20.337Z,32.10
2019-06-26T08:04:25.210Z,32.40
2019-06-26T08:09:30.107Z,32.30
2019-06-26T08:14:34.935Z,32.70
2019-06-26T08:19:39.795Z,33.10
2019-06-26T08:24:44.642Z,33.50
2019-06-26T08:29:49.484Z,33.50
2019-06-26T08:34:54.260Z,33.50
2019-06-26T08:39:59.108Z,33.70
2019-06-26T08:45:04.951Z,33.90
2019-06-26T08:50:10.699Z,34.20
2019-06-26T08:55:15.753Z,34.30
2019-06-26T09:00:21.105Z,34.00
2019-06-26T09:05:25.947Z,34.20
2019-06-26T09:10:30.858Z,34.60
2019-06-26T09:15:35.699Z,34.90
2019-06-26T09:20:41.063Z,35.10
2019-06-26T09:25:45.839Z,35.20
2019-06-26T09:30:50.682Z,35.20
2019-06-26T09:35:55.532Z,35.40
2019-06-26T09:41:00.384Z,35.40
2019-06-26T09:46:05.219Z,35.40
2019-06-26T09:51:10.071Z,35.70
2019-06-26T09:56:14.922Z,36.20
2019-06-26T10:01:19.768Z,36.40
2019-06-26T10:06:24.625Z,36.20
2019-06-26T10:11:29.475Z,36.20
2019-06-26T10:16:34.311Z,36.60
2019-06-26T10:21:39.234Z,36.60
2019-06-26T10:26:44.315Z,36.70
2019-06-26T10:31:49.151Z,36.60
2019-06-26T10:36:54.013Z,36.70
2019-06-26T10:41:58.838Z,36.90
2019-06-26T10:47:03.811Z,37.00
2019-06-26T10:52:08.651Z,36.90
2019-06-26T10:57:13.476Z,37.10
2019-06-26T11:02:18.415Z,37.40
2019-06-26T11:07:23.378Z,37.40
2019-06-26T11:12:28.146Z,37.60
2019-06-26T11:17:32.983Z,37.40
2019-06-26T11:22:37.883Z,37.40
2019-06-26T11:27:42.719Z,37.90
2019-06-26T11:32:47.566Z,37.70
2019-06-26T11:37:52.505Z,38.10
2019-06-26T11:42:57.349Z,38.40
2019-06-26T11:48:02.197Z,38.20
2019-06-26T11:53:07.095Z,38.10
2019-06-26T11:58:12.122Z,38.10
2019-06-26T12:03:16.969Z,38.20
2019-06-26T12:08:21.877Z,38.20
2019-06-26T12:13:26.731Z,38.20
2019-06-26T12:18:31.567Z,38.00
2019-06-26T12:23:36.469Z,37.60
2019-06-26T12:28:41.315Z,37.70
2019-06-26T12:33:46.083Z,37.70
2019-06-26T12:38:51.093Z,37.90
2019-06-26T12:43:56.039Z,38.10
2019-06-26T12:49:01.607Z,38.10
2019-06-26T12:54:06.453Z,37.70
2019-06-26T12:59:11.294Z,37.40
2019-06-26T13:04:16.147Z,37.50
2019-06-26T13:09:20.994Z,37.70
2019-06-26T13:14:25.860Z,37.60
2019-06-26T13:19:30.714Z,37.50
2019-06-26T13:24:35.672Z,37.70
2019-06-26T13:29:40.512Z,37.80
2019-06-26T13:34:45.383Z,37.30
2019-06-26T13:39:50.227Z,37.20
2019-06-26T13:44:55.072Z,37.60
2019-06-26T13:49:59.983Z,37.10
2019-06-26T13:55:06.529Z,36.80
2019-06-26T14:00:13.667Z,36.70
2019-06-26T14:05:19.023Z,36.70
2019-06-26T14:10:24.435Z,36.80
2019-06-26T14:15:29.377Z,36.90
2019-06-26T14:20:34.249Z,37.00
2019-06-26T14:25:39.120Z,37.00
2019-06-26T14:30:44.146Z,37.10
2019-06-26T14:35:49.035Z,37.00
2019-06-26T14:40:53.883Z,36.60
2019-06-26T14:45:58.731Z,36.10
2019-06-26T14:51:03.599Z,36.10
2019-06-26T14:56:08.341Z,36.30
2019-06-26T15:01:13.203Z,36.30
2019-06-26T15:06:18.050Z,36.50
2019-06-26T15:11:23.323Z,36.50
2019-06-26T15:16:30.411Z,36.40
2019-06-26T15:21:34.634Z,36.20
2019-06-26T15:26:39.482Z,36.00
2019-06-26T15:31:44.361Z,36.40
2019-06-26T15:36:49.303Z,36.30
2019-06-26T15:41:54.164Z,36.00
2019-06-26T15:46:59.020Z,35.90
2019-06-26T15:52:14.630Z,35.90
2019-06-26T15:57:10.425Z,36.00
2019-06-26T16:02:15.254Z,36.30
2019-06-26T16:07:20.204Z,36.20
2019-06-26T16:12:25.040Z,36.30
2019-06-26T16:17:34.472Z,36.10
2019-06-26T16:22:39.353Z,35.80
2019-06-26T16:27:44.170Z,35.80
2019-06-26T16:32:49.021Z,35.80
2019-06-26T16:37:53.910Z,35.50
2019-06-26T16:42:59.146Z,35.40
2019-06-26T16:48:04.178Z,35.30
2019-06-26T16:53:09.014Z,35.30
2019-06-26T16:58:13.848Z,35.20
2019-06-26T17:03:20.323Z,35.10
2019-06-26T17:08:25.224Z,34.40
2019-06-26T17:13:30.088Z,34.30
2019-06-26T17:18:34.949Z,34.00
2019-06-26T17:23:39.798Z,33.80
2019-06-26T17:28:44.735Z,33.60
2019-06-26T17:33:49.625Z,33.50
2019-06-26T17:38:54.481Z,33.30
2019-06-26T17:43:59.371Z,33.30
2019-06-26T17:49:04.217Z,33.30
2019-06-26T17:54:11.112Z,33.10
2019-06-26T17:59:15.970Z,33.00
2019-06-26T18:04:22.282Z,32.90
2019-06-26T18:09:28.586Z,33.00
2019-06-26T18:14:33.425Z,33.00
2019-06-26T18:19:38.388Z,32.90
2019-06-26T18:24:43.219Z,32.60
2019-06-26T18:29:48.057Z,32.50
2019-06-26T18:34:52.912Z,32.40
2019-06-26T18:39:57.867Z,32.10
2019-06-26T18:45:02.714Z,31.90
2019-06-26T18:50:10.084Z,31.70
2019-06-26T18:55:14.982Z,31.50
2019-06-26T19:00:20.528Z,31.30
2019-06-26T19:05:29.301Z,31.00
2019-06-26T19:10:34.152Z,30.80
2019-06-26T19:15:39.025Z,30.70
2019-06-26T19:20:43.874Z,30.50
2019-06-26T19:25:48.712Z,30.40
2019-06-26T19:30:53.557Z,30.40
2019-06-26T19:35:58.414Z,30.00
2019-06-26T19:41:07.567Z,29.70
2019-06-26T19:46:11.211Z,29.20
2019-06-26T19:51:16.276Z,28.90
2019-06-26T19:56:21.110Z,28.90
2019-06-26T20:01:28.084Z,28.80
2019-06-26T20:06:32.918Z,28.20
2019-06-26T20:11:37.757Z,27.90
2019-06-26T20:16:42.597Z,28.00
2019-06-26T20:21:47.559Z,28.00
2019-06-26T20:26:52.408Z,27.90
2019-06-26T20:31:57.335Z,27.80
2019-06-26T20:37:02.217Z,27.70
2019-06-26T20:42:07.097Z,27.60
2019-06-26T20:47:11.964Z,27.50
2019-06-26T20:52:16.822Z,27.40
2019-06-26T20:57:21.704Z,27.40
2019-06-26T21:02:26.629Z,27.30
2019-06-26T21:07:31.447Z,27.20
2019-06-26T21:12:36.346Z,27.10
2019-06-26T21:17:41.299Z,26.80
2019-06-26T21:22:46.138Z,26.70
2019-06-26T21:27:50.978Z,26.50
2019-06-26T21:32:55.834Z,26.30
2019-06-26T21:38:00.782Z,26.20
2019-06-26T21:43:08.965Z,26.20
2019-06-26T21:48:13.820Z,26.00
2019-06-26T21:53:18.640Z,25.80
2019-06-26T21:58:23.489Z,25.70
2019-06-26T22:03:28.671Z,25.60
2019-06-26T22:08:33.519Z,25.40
2019-06-26T22:13:38.358Z,25.30
2019-06-26T22:18:43.200Z,25.20
2019-06-26T22:23:48.049Z,25.10
2019-06-26T22:28:52.873Z,25.00
2019-06-26T22:33:57.784Z,24.80
2019-06-26T22:39:04.309Z,24.70
2019-06-26T22:44:09.134Z,24.60
2019-06-26T22:49:13.975Z,24.60
2019-06-26T22:54:19.863Z,24.50
2019-06-26T22:59:25.176Z,24.40
2019-06-26T23:04:30.152Z,24.30
2019-06-26T23:09:34.992Z,24.20
2019-06-26T23:14:39.929Z,24.00
2019-06-26T23:19:45.045Z,23.90
2019-06-26T23:24:49.888Z,23.80
2019-06-26T23:29:54.720Z,23.60
2019-06-26T23:34:59.555Z,23.60
2019-06-26T23:40:06.190Z,23.60
2019-06-26T23:45:11.530Z,23.50
2019-06-26T23:50:16.456Z,23.30
2019-06-26T23:55:21.619Z,23.30
